sensor_id;sensor_type;location;lat;lon;timestamp;P1;durP1;ratioP1;P2;durP2;ratioP2
297;SDS011;133;49.626;9.680;2022-07-29T00:02:06;3.97;;;3.73;;
297;SDS011;133;49.626;9.680;2022-07-29T00:04:34;5.53;;;3.87;;
297;SDS011;133;49.626;9.680;2022-07-29T00:07:00;4.80;;;4.23;;
297;SDS011;133;49.626;9.680;2022-07-29T00:09:25;5.87;;;4.17;;
297;SDS011;133;49.626;9.680;2022-07-29T00:11:51;4.50;;;4.20;;
297;SDS011;133;49.626;9.680;2022-07-29T00:14:17;4.67;;;4.10;;
297;SDS011;133;49.626;9.680;2022-07-29T00:16:42;3.73;;;3.53;;
297;SDS011;133;49.626;9.680;2022-07-29T00:19:08;3.77;;;3.57;;
297;SDS011;133;49.626;9.680;2022-07-29T00:21:33;7.40;;;4.30;;
297;SDS011;133;49.626;9.680;2022-07-29T00:23:59;4.60;;;4.13;;
297;SDS011;133;49.626;9.680;2022-07-29T00:26:25;4.47;;;3.63;;
297;SDS011;133;49.626;9.680;2022-07-29T00:28:52;4.80;;;4.20;;
297;SDS011;133;49.626;9.680;2022-07-29T00:31:18;4.03;;;3.83;;
297;SDS011;133;49.626;9.680;2022-07-29T00:33:43;3.90;;;3.70;;
297;SDS011;133;49.626;9.680;2022-07-29T00:36:09;5.27;;;3.60;;
297;SDS011;133;49.626;9.680;2022-07-29T00:38:35;3.63;;;3.50;;
297;SDS011;133;49.626;9.680;2022-07-29T00:41:00;4.07;;;3.87;;
297;SDS011;133;49.626;9.680;2022-07-29T00:43:26;6.43;;;3.83;;
297;SDS011;133;49.626;9.680;2022-07-29T00:45:52;5.30;;;4.07;;
297;SDS011;133;49.626;9.680;2022-07-29T00:48:17;4.63;;;3.70;;
297;SDS011;133;49.626;9.680;2022-07-29T00:50:43;3.97;;;3.77;;
297;SDS011;133;49.626;9.680;2022-07-29T00:53:09;3.90;;;3.70;;
297;SDS011;133;49.626;9.680;2022-07-29T00:55:37;4.47;;;3.87;;
297;SDS011;133;49.626;9.680;2022-07-29T00:58:03;4.30;;;4.07;;
297;SDS011;133;49.626;9.680;2022-07-29T01:00:29;7.13;;;3.60;;
297;SDS011;133;49.626;9.680;2022-07-29T01:02:55;5.43;;;3.67;;
297;SDS011;133;49.626;9.680;2022-07-29T01:05:21;5.97;;;4.40;;
297;SDS011;133;49.626;9.680;2022-07-29T01:07:50;4.40;;;3.60;;
297;SDS011;133;49.626;9.680;2022-07-29T01:10:18;4.37;;;4.07;;
297;SDS011;133;49.626;9.680;2022-07-29T01:12:46;4.33;;;3.67;;
297;SDS011;133;49.626;9.680;2022-07-29T01:15:14;3.87;;;3.70;;
297;SDS011;133;49.626;9.680;2022-07-29T01:20:50;4.50;;;4.07;;
297;SDS011;133;49.626;9.680;2022-07-29T01:24:19;5.10;;;4.27;;
297;SDS011;133;49.626;9.680;2022-07-29T01:26:59;4.60;;;4.07;;
297;SDS011;133;49.626;9.680;2022-07-29T01:29:45;4.40;;;4.10;;
297;SDS011;133;49.626;9.680;2022-07-29T01:32:19;4.53;;;4.07;;
297;SDS011;133;49.626;9.680;2022-07-29T01:37:18;4.00;;;3.80;;
297;SDS011;133;49.626;9.680;2022-07-29T01:39:54;5.33;;;3.60;;
297;SDS011;133;49.626;9.680;2022-07-29T01:42:35;5.53;;;3.80;;
297;SDS011;133;49.626;9.680;2022-07-29T01:45:08;4.00;;;3.60;;
297;SDS011;133;49.626;9.680;2022-07-29T01:47:40;5.07;;;4.77;;
297;SDS011;133;49.626;9.680;2022-07-29T01:50:31;4.63;;;4.20;;
297;SDS011;133;49.626;9.680;2022-07-29T01:53:01;5.20;;;3.73;;
297;SDS011;133;49.626;9.680;2022-07-29T01:55:31;4.30;;;4.00;;
297;SDS011;133;49.626;9.680;2022-07-29T01:58:00;3.97;;;3.77;;
297;SDS011;133;49.626;9.680;2022-07-29T02:00:27;3.93;;;3.77;;
297;SDS011;133;49.626;9.680;2022-07-29T02:02:56;4.73;;;3.97;;
297;SDS011;133;49.626;9.680;2022-07-29T02:05:25;6.43;;;4.27;;
297;SDS011;133;49.626;9.680;2022-07-29T02:07:53;5.37;;;4.40;;
297;SDS011;133;49.626;9.680;2022-07-29T02:10:21;4.43;;;4.13;;
297;SDS011;133;49.626;9.680;2022-07-29T02:12:48;4.63;;;4.00;;
297;SDS011;133;49.626;9.680;2022-07-29T02:15:16;3.73;;;3.53;;
297;SDS011;133;49.626;9.680;2022-07-29T02:17:47;5.10;;;4.30;;
297;SDS011;133;49.626;9.680;2022-07-29T02:20:16;6.07;;;3.97;;
297;SDS011;133;49.626;9.680;2022-07-29T02:22:42;4.30;;;4.00;;
297;SDS011;133;49.626;9.680;2022-07-29T02:25:11;5.67;;;4.00;;
297;SDS011;133;49.626;9.680;2022-07-29T02:27:38;3.93;;;3.70;;
297;SDS011;133;49.626;9.680;2022-07-29T02:30:06;4.40;;;4.10;;
297;SDS011;133;49.626;9.680;2022-07-29T02:32:34;6.17;;;4.33;;
297;SDS011;133;49.626;9.680;2022-07-29T02:35:01;5.03;;;4.73;;
297;SDS011;133;49.626;9.680;2022-07-29T02:37:28;6.53;;;4.53;;
297;SDS011;133;49.626;9.680;2022-07-29T02:39:55;4.67;;;4.37;;
297;SDS011;133;49.626;9.680;2022-07-29T02:42:23;5.73;;;4.20;;
297;SDS011;133;49.626;9.680;2022-07-29T02:44:51;5.20;;;4.13;;
297;SDS011;133;49.626;9.680;2022-07-29T02:47:22;3.97;;;3.80;;
297;SDS011;133;49.626;9.680;2022-07-29T02:49:57;6.30;;;4.00;;
297;SDS011;133;49.626;9.680;2022-07-29T02:52:31;4.90;;;3.83;;
297;SDS011;133;49.626;9.680;2022-07-29T02:57:46;6.50;;;3.73;;
297;SDS011;133;49.626;9.680;2022-07-29T03:00:18;7.30;;;4.67;;
297;SDS011;133;49.626;9.680;2022-07-29T03:02:45;4.40;;;4.00;;
297;SDS011;133;49.626;9.680;2022-07-29T03:05:17;5.30;;;4.03;;
297;SDS011;133;49.626;9.680;2022-07-29T03:07:45;4.70;;;3.93;;
297;SDS011;133;49.626;9.680;2022-07-29T03:10:14;5.60;;;4.40;;
297;SDS011;133;49.626;9.680;2022-07-29T03:12:41;5.30;;;4.20;;
297;SDS011;133;49.626;9.680;2022-07-29T03:15:07;4.73;;;3.93;;
297;SDS011;133;49.626;9.680;2022-07-29T03:17:34;5.77;;;4.10;;
297;SDS011;133;49.626;9.680;2022-07-29T03:20:01;4.33;;;4.03;;
297;SDS011;133;49.626;9.680;2022-07-29T03:22:27;5.00;;;4.10;;
297;SDS011;133;49.626;9.680;2022-07-29T03:24:54;5.23;;;4.17;;
297;SDS011;133;49.626;9.680;2022-07-29T03:27:19;4.23;;;3.90;;
297;SDS011;133;49.626;9.680;2022-07-29T03:29:45;7.20;;;3.90;;
297;SDS011;133;49.626;9.680;2022-07-29T03:32:11;6.53;;;4.33;;
297;SDS011;133;49.626;9.680;2022-07-29T03:34:36;6.53;;;4.17;;
297;SDS011;133;49.626;9.680;2022-07-29T03:37:03;4.47;;;3.73;;
297;SDS011;133;49.626;9.680;2022-07-29T03:39:29;5.43;;;4.20;;
297;SDS011;133;49.626;9.680;2022-07-29T03:41:59;4.60;;;4.20;;
297;SDS011;133;49.626;9.680;2022-07-29T03:44:26;9.27;;;4.50;;
297;SDS011;133;49.626;9.680;2022-07-29T03:46:53;6.13;;;4.20;;
297;SDS011;133;49.626;9.680;2022-07-29T03:49:22;5.63;;;4.30;;
297;SDS011;133;49.626;9.680;2022-07-29T03:51:49;5.30;;;3.97;;
297;SDS011;133;49.626;9.680;2022-07-29T03:54:15;24.03;;;4.67;;
297;SDS011;133;49.626;9.680;2022-07-29T03:56:42;4.57;;;4.30;;
297;SDS011;133;49.626;9.680;2022-07-29T03:59:12;8.03;;;4.10;;
297;SDS011;133;49.626;9.680;2022-07-29T04:01:39;4.90;;;4.27;;
297;SDS011;133;49.626;9.680;2022-07-29T04:04:06;6.03;;;4.43;;
297;SDS011;133;49.626;9.680;2022-07-29T04:06:38;4.80;;;4.10;;
297;SDS011;133;49.626;9.680;2022-07-29T04:09:05;4.60;;;4.30;;
297;SDS011;133;49.626;9.680;2022-07-29T04:11:30;4.73;;;4.43;;
297;SDS011;133;49.626;9.680;2022-07-29T04:13:56;6.53;;;4.17;;
297;SDS011;133;49.626;9.680;2022-07-29T04:16:22;5.07;;;4.27;;
297;SDS011;133;49.626;9.680;2022-07-29T04:18:47;4.83;;;4.47;;
297;SDS011;133;49.626;9.680;2022-07-29T04:21:13;5.23;;;4.37;;
297;SDS011;133;49.626;9.680;2022-07-29T04:23:39;6.27;;;4.13;;
297;SDS011;133;49.626;9.680;2022-07-29T04:26:06;7.37;;;4.33;;
297;SDS011;133;49.626;9.680;2022-07-29T04:28:34;7.40;;;4.67;;
297;SDS011;133;49.626;9.680;2022-07-29T04:31:00;8.13;;;4.47;;
297;SDS011;133;49.626;9.680;2022-07-29T04:33:26;6.80;;;4.10;;
297;SDS011;133;49.626;9.680;2022-07-29T04:35:52;5.90;;;4.30;;
297;SDS011;133;49.626;9.680;2022-07-29T04:38:17;6.60;;;4.33;;
297;SDS011;133;49.626;9.680;2022-07-29T04:40:43;6.80;;;4.80;;
297;SDS011;133;49.626;9.680;2022-07-29T04:43:09;4.70;;;4.40;;
297;SDS011;133;49.626;9.680;2022-07-29T04:45:34;4.60;;;4.30;;
297;SDS011;133;49.626;9.680;2022-07-29T04:48:00;5.70;;;4.57;;
297;SDS011;133;49.626;9.680;2022-07-29T04:50:25;6.63;;;4.53;;
297;SDS011;133;49.626;9.680;2022-07-29T04:52:51;7.23;;;4.50;;
297;SDS011;133;49.626;9.680;2022-07-29T04:55:17;5.13;;;4.27;;
297;SDS011;133;49.626;9.680;2022-07-29T04:57:42;4.83;;;4.30;;
297;SDS011;133;49.626;9.680;2022-07-29T05:00:08;4.17;;;3.93;;
297;SDS011;133;49.626;9.680;2022-07-29T05:02:34;6.97;;;4.70;;
297;SDS011;133;49.626;9.680;2022-07-29T05:05:00;6.23;;;4.23;;
297;SDS011;133;49.626;9.680;2022-07-29T05:07:25;5.13;;;4.30;;
297;SDS011;133;49.626;9.680;2022-07-29T05:09:51;4.47;;;4.17;;
297;SDS011;133;49.626;9.680;2022-07-29T05:12:17;6.90;;;4.60;;
297;SDS011;133;49.626;9.680;2022-07-29T05:14:43;6.33;;;4.07;;
297;SDS011;133;49.626;9.680;2022-07-29T05:17:09;6.70;;;4.67;;
297;SDS011;133;49.626;9.680;2022-07-29T05:19:34;9.00;;;4.13;;
297;SDS011;133;49.626;9.680;2022-07-29T05:22:00;6.97;;;4.53;;
297;SDS011;133;49.626;9.680;2022-07-29T05:24:26;4.50;;;4.20;;
297;SDS011;133;49.626;9.680;2022-07-29T05:26:51;8.80;;;5.00;;
297;SDS011;133;49.626;9.680;2022-07-29T05:29:17;6.63;;;4.50;;
297;SDS011;133;49.626;9.680;2022-07-29T05:31:42;4.83;;;4.57;;
297;SDS011;133;49.626;9.680;2022-07-29T05:34:08;6.20;;;4.50;;
297;SDS011;133;49.626;9.680;2022-07-29T05:36:34;5.43;;;4.67;;
297;SDS011;133;49.626;9.680;2022-07-29T05:38:59;7.07;;;4.57;;
297;SDS011;133;49.626;9.680;2022-07-29T05:41:25;5.40;;;4.40;;
297;SDS011;133;49.626;9.680;2022-07-29T05:43:51;4.33;;;4.03;;
297;SDS011;133;49.626;9.680;2022-07-29T05:46:16;6.13;;;4.40;;
297;SDS011;133;49.626;9.680;2022-07-29T05:48:42;6.67;;;4.70;;
297;SDS011;133;49.626;9.680;2022-07-29T05:51:08;7.83;;;4.50;;
297;SDS011;133;49.626;9.680;2022-07-29T05:53:33;4.77;;;4.27;;
297;SDS011;133;49.626;9.680;2022-07-29T05:56:02;5.30;;;4.23;;
297;SDS011;133;49.626;9.680;2022-07-29T05:58:29;4.40;;;4.10;;
297;SDS011;133;49.626;9.680;2022-07-29T06:00:55;6.30;;;4.63;;
297;SDS011;133;49.626;9.680;2022-07-29T06:03:27;6.10;;;5.10;;
297;SDS011;133;49.626;9.680;2022-07-29T06:05:54;8.97;;;4.40;;
297;SDS011;133;49.626;9.680;2022-07-29T06:08:19;4.80;;;4.50;;
297;SDS011;133;49.626;9.680;2022-07-29T06:10:45;10.87;;;5.33;;
297;SDS011;133;49.626;9.680;2022-07-29T06:13:11;4.70;;;4.40;;
297;SDS011;133;49.626;9.680;2022-07-29T06:15:37;7.27;;;4.50;;
297;SDS011;133;49.626;9.680;2022-07-29T06:18:03;9.50;;;5.40;;
297;SDS011;133;49.626;9.680;2022-07-29T06:20:32;5.60;;;4.40;;
297;SDS011;133;49.626;9.680;2022-07-29T06:22:58;6.23;;;5.10;;
297;SDS011;133;49.626;9.680;2022-07-29T06:25:24;8.83;;;4.50;;
297;SDS011;133;49.626;9.680;2022-07-29T06:27:49;6.10;;;5.10;;
297;SDS011;133;49.626;9.680;2022-07-29T06:30:15;5.80;;;4.20;;
297;SDS011;133;49.626;9.680;2022-07-29T06:32:41;7.33;;;5.50;;
297;SDS011;133;49.626;9.680;2022-07-29T06:35:06;6.83;;;4.90;;
297;SDS011;133;49.626;9.680;2022-07-29T06:37:32;6.30;;;5.03;;
297;SDS011;133;49.626;9.680;2022-07-29T06:39:58;6.50;;;4.47;;
297;SDS011;133;49.626;9.680;2022-07-29T06:42:42;5.80;;;4.40;;
297;SDS011;133;49.626;9.680;2022-07-29T06:45:09;5.67;;;4.50;;
297;SDS011;133;49.626;9.680;2022-07-29T06:47:36;6.30;;;4.20;;
297;SDS011;133;49.626;9.680;2022-07-29T06:50:01;6.17;;;4.93;;
297;SDS011;133;49.626;9.680;2022-07-29T06:52:27;6.80;;;4.67;;
297;SDS011;133;49.626;9.680;2022-07-29T06:54:53;8.37;;;4.20;;
297;SDS011;133;49.626;9.680;2022-07-29T06:57:20;5.83;;;4.40;;
297;SDS011;133;49.626;9.680;2022-07-29T06:59:46;5.60;;;4.30;;
297;SDS011;133;49.626;9.680;2022-07-29T07:02:12;8.00;;;4.40;;
297;SDS011;133;49.626;9.680;2022-07-29T07:04:37;4.60;;;4.30;;
297;SDS011;133;49.626;9.680;2022-07-29T07:07:03;5.83;;;4.40;;
297;SDS011;133;49.626;9.680;2022-07-29T07:09:29;9.03;;;4.90;;
297;SDS011;133;49.626;9.680;2022-07-29T07:11:54;5.03;;;4.40;;
297;SDS011;133;49.626;9.680;2022-07-29T07:14:20;5.80;;;5.20;;
297;SDS011;133;49.626;9.680;2022-07-29T07:16:45;6.40;;;4.80;;
297;SDS011;133;49.626;9.680;2022-07-29T07:19:11;8.23;;;5.30;;
297;SDS011;133;49.626;9.680;2022-07-29T07:21:37;6.40;;;4.80;;
297;SDS011;133;49.626;9.680;2022-07-29T07:24:02;6.30;;;4.70;;
297;SDS011;133;49.626;9.680;2022-07-29T07:26:28;4.33;;;4.03;;
297;SDS011;133;49.626;9.680;2022-07-29T07:28:54;5.03;;;4.60;;
297;SDS011;133;49.626;9.680;2022-07-29T07:31:19;5.60;;;4.40;;
297;SDS011;133;49.626;9.680;2022-07-29T07:33:45;4.73;;;4.43;;
297;SDS011;133;49.626;9.680;2022-07-29T07:36:11;7.93;;;5.07;;
297;SDS011;133;49.626;9.680;2022-07-29T07:38:37;5.03;;;4.43;;
297;SDS011;133;49.626;9.680;2022-07-29T07:41:03;4.93;;;4.67;;
297;SDS011;133;49.626;9.680;2022-07-29T07:43:29;7.57;;;4.83;;
297;SDS011;133;49.626;9.680;2022-07-29T07:45:54;4.97;;;4.67;;
297;SDS011;133;49.626;9.680;2022-07-29T07:48:20;5.27;;;4.50;;
297;SDS011;133;49.626;9.680;2022-07-29T07:50:45;6.43;;;4.50;;
297;SDS011;133;49.626;9.680;2022-07-29T07:53:11;6.90;;;4.23;;
297;SDS011;133;49.626;9.680;2022-07-29T07:55:40;4.40;;;4.10;;
297;SDS011;133;49.626;9.680;2022-07-29T07:58:07;4.87;;;4.23;;
297;SDS011;133;49.626;9.680;2022-07-29T08:00:33;4.67;;;4.37;;
297;SDS011;133;49.626;9.680;2022-07-29T08:02:59;5.63;;;4.90;;
297;SDS011;133;49.626;9.680;2022-07-29T08:05:24;6.30;;;4.57;;
297;SDS011;133;49.626;9.680;2022-07-29T08:07:50;5.70;;;4.40;;
297;SDS011;133;49.626;9.680;2022-07-29T08:10:16;8.97;;;4.40;;
297;SDS011;133;49.626;9.680;2022-07-29T08:13:04;4.80;;;4.50;;
297;SDS011;133;49.626;9.680;2022-07-29T08:15:31;4.57;;;4.27;;
297;SDS011;133;49.626;9.680;2022-07-29T08:17:57;4.77;;;4.47;;
297;SDS011;133;49.626;9.680;2022-07-29T08:20:22;4.83;;;4.50;;
297;SDS011;133;49.626;9.680;2022-07-29T08:22:48;7.47;;;4.67;;
297;SDS011;133;49.626;9.680;2022-07-29T08:25:14;5.90;;;4.57;;
297;SDS011;133;49.626;9.680;2022-07-29T08:27:39;4.60;;;4.30;;
297;SDS011;133;49.626;9.680;2022-07-29T08:30:05;6.23;;;4.70;;
297;SDS011;133;49.626;9.680;2022-07-29T08:32:31;5.23;;;4.93;;
297;SDS011;133;49.626;9.680;2022-07-29T08:34:57;7.10;;;5.23;;
297;SDS011;133;49.626;9.680;2022-07-29T08:37:22;5.60;;;4.30;;
297;SDS011;133;49.626;9.680;2022-07-29T08:39:48;5.30;;;4.80;;
297;SDS011;133;49.626;9.680;2022-07-29T08:42:14;6.20;;;4.70;;
297;SDS011;133;49.626;9.680;2022-07-29T08:44:41;5.37;;;4.60;;
297;SDS011;133;49.626;9.680;2022-07-29T08:47:07;9.47;;;4.70;;
297;SDS011;133;49.626;9.680;2022-07-29T08:49:33;6.10;;;4.63;;
297;SDS011;133;49.626;9.680;2022-07-29T08:52:00;5.07;;;4.77;;
297;SDS011;133;49.626;9.680;2022-07-29T08:54:27;6.87;;;5.27;;
297;SDS011;133;49.626;9.680;2022-07-29T08:56:53;5.57;;;4.53;;
297;SDS011;133;49.626;9.680;2022-07-29T08:59:21;5.60;;;4.87;;
297;SDS011;133;49.626;9.680;2022-07-29T09:01:50;6.63;;;4.83;;
297;SDS011;133;49.626;9.680;2022-07-29T09:04:17;4.97;;;4.50;;
297;SDS011;133;49.626;9.680;2022-07-29T09:06:44;6.47;;;4.60;;
297;SDS011;133;49.626;9.680;2022-07-29T09:09:12;5.00;;;4.20;;
297;SDS011;133;49.626;9.680;2022-07-29T09:11:39;6.97;;;4.87;;
297;SDS011;133;49.626;9.680;2022-07-29T09:14:06;7.17;;;4.50;;
297;SDS011;133;49.626;9.680;2022-07-29T09:16:49;5.10;;;4.77;;
297;SDS011;133;49.626;9.680;2022-07-29T09:19:28;6.20;;;4.00;;
297;SDS011;133;49.626;9.680;2022-07-29T09:21:56;5.70;;;4.07;;
297;SDS011;133;49.626;9.680;2022-07-29T09:24:24;6.13;;;4.67;;
297;SDS011;133;49.626;9.680;2022-07-29T09:26:52;6.50;;;4.53;;
297;SDS011;133;49.626;9.680;2022-07-29T09:29:19;5.70;;;5.13;;
297;SDS011;133;49.626;9.680;2022-07-29T09:31:48;8.63;;;5.03;;
297;SDS011;133;49.626;9.680;2022-07-29T09:34:15;6.47;;;5.13;;
297;SDS011;133;49.626;9.680;2022-07-29T09:36:47;5.80;;;4.90;;
297;SDS011;133;49.626;9.680;2022-07-29T09:39:14;5.53;;;4.70;;
297;SDS011;133;49.626;9.680;2022-07-29T09:41:48;13.33;;;5.60;;
297;SDS011;133;49.626;9.680;2022-07-29T09:44:15;8.80;;;4.67;;
297;SDS011;133;49.626;9.680;2022-07-29T09:47:00;7.10;;;4.73;;
297;SDS011;133;49.626;9.680;2022-07-29T09:49:31;5.67;;;4.10;;
297;SDS011;133;49.626;9.680;2022-07-29T09:52:08;4.00;;;3.70;;
297;SDS011;133;49.626;9.680;2022-07-29T09:54:36;6.27;;;4.03;;
297;SDS011;133;49.626;9.680;2022-07-29T09:57:02;4.30;;;4.00;;
297;SDS011;133;49.626;9.680;2022-07-29T09:59:33;4.90;;;4.13;;
297;SDS011;133;49.626;9.680;2022-07-29T10:01:59;10.13;;;4.50;;
297;SDS011;133;49.626;9.680;2022-07-29T10:04:38;5.03;;;4.73;;
297;SDS011;133;49.626;9.680;2022-07-29T10:07:04;4.40;;;4.10;;
297;SDS011;133;49.626;9.680;2022-07-29T10:09:30;5.43;;;4.50;;
297;SDS011;133;49.626;9.680;2022-07-29T10:14:38;5.97;;;4.53;;
297;SDS011;133;49.626;9.680;2022-07-29T10:17:05;4.47;;;3.83;;
297;SDS011;133;49.626;9.680;2022-07-29T10:19:32;5.50;;;4.67;;
297;SDS011;133;49.626;9.680;2022-07-29T10:21:59;5.70;;;4.80;;
297;SDS011;133;49.626;9.680;2022-07-29T10:24:26;4.73;;;4.20;;
297;SDS011;133;49.626;9.680;2022-07-29T10:26:57;4.00;;;3.80;;
297;SDS011;133;49.626;9.680;2022-07-29T10:29:25;4.20;;;3.97;;
297;SDS011;133;49.626;9.680;2022-07-29T10:38:34;5.43;;;4.30;;
297;SDS011;133;49.626;9.680;2022-07-29T10:40:57;7.43;;;4.10;;
297;SDS011;133;49.626;9.680;2022-07-29T10:44:34;5.83;;;3.90;;
297;SDS011;133;49.626;9.680;2022-07-29T10:46:42;4.50;;;4.20;;
297;SDS011;133;49.626;9.680;2022-07-29T10:54:55;4.30;;;4.00;;
297;SDS011;133;49.626;9.680;2022-07-29T10:57:23;4.87;;;4.57;;
297;SDS011;133;49.626;9.680;2022-07-29T11:05:17;5.73;;;3.70;;
297;SDS011;133;49.626;9.680;2022-07-29T11:10:34;7.87;;;4.50;;
297;SDS011;133;49.626;9.680;2022-07-29T11:13:00;6.27;;;4.70;;
297;SDS011;133;49.626;9.680;2022-07-29T11:15:26;10.20;;;4.57;;
297;SDS011;133;49.626;9.680;2022-07-29T11:20:36;4.00;;;3.80;;
297;SDS011;133;49.626;9.680;2022-07-29T11:23:17;5.33;;;4.47;;
297;SDS011;133;49.626;9.680;2022-07-29T11:25:45;5.17;;;4.90;;
297;SDS011;133;49.626;9.680;2022-07-29T11:28:31;6.27;;;4.13;;
297;SDS011;133;49.626;9.680;2022-07-29T11:30:58;6.83;;;4.23;;
297;SDS011;133;49.626;9.680;2022-07-29T11:33:32;7.07;;;4.13;;
297;SDS011;133;49.626;9.680;2022-07-29T11:36:11;4.73;;;4.43;;
297;SDS011;133;49.626;9.680;2022-07-29T11:38:38;4.37;;;4.07;;
297;SDS011;133;49.626;9.680;2022-07-29T11:43:46;3.83;;;3.63;;
297;SDS011;133;49.626;9.680;2022-07-29T11:46:16;4.07;;;3.90;;
297;SDS011;133;49.626;9.680;2022-07-29T11:49:00;5.47;;;4.27;;
297;SDS011;133;49.626;9.680;2022-07-29T11:51:27;4.10;;;3.90;;
297;SDS011;133;49.626;9.680;2022-07-29T11:53:53;4.50;;;4.23;;
297;SDS011;133;49.626;9.680;2022-07-29T11:56:22;11.30;;;4.00;;
297;SDS011;133;49.626;9.680;2022-07-29T11:59:00;4.50;;;4.20;;
297;SDS011;133;49.626;9.680;2022-07-29T12:01:29;4.57;;;4.30;;
297;SDS011;133;49.626;9.680;2022-07-29T12:04:04;4.43;;;4.13;;
297;SDS011;133;49.626;9.680;2022-07-29T12:06:31;4.70;;;4.40;;
297;SDS011;133;49.626;9.680;2022-07-29T12:08:57;4.40;;;4.10;;
297;SDS011;133;49.626;9.680;2022-07-29T12:11:23;4.00;;;3.80;;
297;SDS011;133;49.626;9.680;2022-07-29T12:13:49;4.97;;;4.37;;
297;SDS011;133;49.626;9.680;2022-07-29T12:16:16;9.73;;;4.93;;
297;SDS011;133;49.626;9.680;2022-07-29T12:18:41;11.53;;;6.20;;
297;SDS011;133;49.626;9.680;2022-07-29T12:21:07;6.40;;;5.43;;
297;SDS011;133;49.626;9.680;2022-07-29T12:23:33;5.70;;;4.83;;
297;SDS011;133;49.626;9.680;2022-07-29T12:25:59;7.80;;;4.73;;
297;SDS011;133;49.626;9.680;2022-07-29T12:28:25;6.67;;;5.30;;
297;SDS011;133;49.626;9.680;2022-07-29T12:30:51;6.50;;;5.53;;
297;SDS011;133;49.626;9.680;2022-07-29T12:35:48;6.30;;;5.07;;
297;SDS011;133;49.626;9.680;2022-07-29T12:38:27;8.70;;;5.23;;
297;SDS011;133;49.626;9.680;2022-07-29T12:40:53;6.90;;;5.33;;
297;SDS011;133;49.626;9.680;2022-07-29T12:43:23;8.30;;;6.13;;
297;SDS011;133;49.626;9.680;2022-07-29T12:45:50;9.30;;;6.60;;
297;SDS011;133;49.626;9.680;2022-07-29T12:48:36;10.73;;;6.57;;
297;SDS011;133;49.626;9.680;2022-07-29T12:51:06;8.33;;;6.50;;
297;SDS011;133;49.626;9.680;2022-07-29T12:53:33;13.40;;;7.27;;
297;SDS011;133;49.626;9.680;2022-07-29T12:56:00;13.13;;;8.40;;
297;SDS011;133;49.626;9.680;2022-07-29T12:58:40;13.93;;;8.60;;
297;SDS011;133;49.626;9.680;2022-07-29T13:03:46;23.43;;;11.50;;
297;SDS011;133;49.626;9.680;2022-07-29T13:09:02;14.10;;;9.50;;
297;SDS011;133;49.626;9.680;2022-07-29T13:14:00;14.87;;;12.30;;
297;SDS011;133;49.626;9.680;2022-07-29T13:16:26;11.73;;;10.90;;
297;SDS011;133;49.626;9.680;2022-07-29T13:19:05;9.17;;;8.67;;
297;SDS011;133;49.626;9.680;2022-07-29T13:21:32;15.03;;;10.63;;
297;SDS011;133;49.626;9.680;2022-07-29T13:23:58;10.83;;;10.23;;
297;SDS011;133;49.626;9.680;2022-07-29T13:26:24;11.90;;;10.03;;
297;SDS011;133;49.626;9.680;2022-07-29T13:28:50;10.50;;;9.30;;
297;SDS011;133;49.626;9.680;2022-07-29T13:31:15;13.07;;;9.90;;
297;SDS011;133;49.626;9.680;2022-07-29T13:33:41;10.07;;;9.40;;
297;SDS011;133;49.626;9.680;2022-07-29T13:36:07;9.40;;;8.90;;
297;SDS011;133;49.626;9.680;2022-07-29T13:38:32;9.93;;;9.20;;
297;SDS011;133;49.626;9.680;2022-07-29T13:40:58;8.67;;;7.83;;
297;SDS011;133;49.626;9.680;2022-07-29T13:43:25;8.70;;;8.30;;
297;SDS011;133;49.626;9.680;2022-07-29T13:45:51;7.60;;;6.90;;
297;SDS011;133;49.626;9.680;2022-07-29T13:48:17;10.70;;;7.30;;
297;SDS011;133;49.626;9.680;2022-07-29T13:50:42;8.20;;;7.07;;
297;SDS011;133;49.626;9.680;2022-07-29T13:53:08;11.70;;;9.00;;
297;SDS011;133;49.626;9.680;2022-07-29T13:55:33;10.57;;;7.60;;
297;SDS011;133;49.626;9.680;2022-07-29T13:57:59;11.50;;;8.20;;
297;SDS011;133;49.626;9.680;2022-07-29T14:00:25;8.13;;;7.73;;
297;SDS011;133;49.626;9.680;2022-07-29T14:02:51;11.33;;;10.10;;
297;SDS011;133;49.626;9.680;2022-07-29T14:05:17;9.83;;;9.33;;
297;SDS011;133;49.626;9.680;2022-07-29T14:07:42;10.70;;;8.97;;
297;SDS011;133;49.626;9.680;2022-07-29T14:10:08;11.93;;;9.07;;
297;SDS011;133;49.626;9.680;2022-07-29T14:12:35;9.10;;;8.57;;
297;SDS011;133;49.626;9.680;2022-07-29T14:15:01;12.90;;;9.93;;
297;SDS011;133;49.626;9.680;2022-07-29T14:17:27;14.37;;;10.03;;
297;SDS011;133;49.626;9.680;2022-07-29T14:19:52;13.77;;;9.23;;
297;SDS011;133;49.626;9.680;2022-07-29T14:22:18;16.13;;;10.03;;
297;SDS011;133;49.626;9.680;2022-07-29T14:24:44;13.63;;;10.90;;
297;SDS011;133;49.626;9.680;2022-07-29T14:27:09;16.37;;;10.10;;
297;SDS011;133;49.626;9.680;2022-07-29T14:29:35;15.33;;;10.47;;
297;SDS011;133;49.626;9.680;2022-07-29T14:32:01;11.50;;;10.10;;
297;SDS011;133;49.626;9.680;2022-07-29T14:34:27;12.17;;;9.90;;
297;SDS011;133;49.626;9.680;2022-07-29T14:36:53;17.73;;;11.13;;
297;SDS011;133;49.626;9.680;2022-07-29T14:39:21;8.80;;;8.20;;
297;SDS011;133;49.626;9.680;2022-07-29T14:41:48;8.80;;;8.03;;
297;SDS011;133;49.626;9.680;2022-07-29T14:44:14;10.90;;;9.20;;
297;SDS011;133;49.626;9.680;2022-07-29T14:46:39;9.43;;;8.20;;
297;SDS011;133;49.626;9.680;2022-07-29T14:49:05;9.27;;;8.80;;
297;SDS011;133;49.626;9.680;2022-07-29T14:51:31;10.30;;;8.60;;
297;SDS011;133;49.626;9.680;2022-07-29T14:53:56;9.53;;;8.83;;
297;SDS011;133;49.626;9.680;2022-07-29T14:56:22;9.90;;;8.10;;
297;SDS011;133;49.626;9.680;2022-07-29T14:58:48;9.20;;;8.70;;
297;SDS011;133;49.626;9.680;2022-07-29T15:01:14;8.27;;;7.33;;
297;SDS011;133;49.626;9.680;2022-07-29T15:03:39;9.27;;;8.40;;
297;SDS011;133;49.626;9.680;2022-07-29T15:06:05;9.03;;;8.33;;
297;SDS011;133;49.626;9.680;2022-07-29T15:08:31;9.97;;;9.00;;
297;SDS011;133;49.626;9.680;2022-07-29T15:10:57;9.60;;;9.10;;
297;SDS011;133;49.626;9.680;2022-07-29T15:13:24;13.07;;;9.27;;
297;SDS011;133;49.626;9.680;2022-07-29T15:15:50;9.00;;;8.50;;
297;SDS011;133;49.626;9.680;2022-07-29T15:18:16;8.70;;;8.20;;
297;SDS011;133;49.626;9.680;2022-07-29T15:20:42;10.50;;;9.30;;
297;SDS011;133;49.626;9.680;2022-07-29T15:23:10;8.77;;;8.27;;
297;SDS011;133;49.626;9.680;2022-07-29T15:25:37;9.50;;;9.00;;
297;SDS011;133;49.626;9.680;2022-07-29T15:28:03;9.07;;;8.23;;
297;SDS011;133;49.626;9.680;2022-07-29T15:30:31;10.47;;;9.87;;
297;SDS011;133;49.626;9.680;2022-07-29T15:32:58;10.77;;;10.17;;
297;SDS011;133;49.626;9.680;2022-07-29T15:35:24;9.60;;;9.10;;
297;SDS011;133;49.626;9.680;2022-07-29T15:37:49;12.50;;;9.57;;
297;SDS011;133;49.626;9.680;2022-07-29T15:40:15;8.77;;;8.23;;
297;SDS011;133;49.626;9.680;2022-07-29T15:42:41;9.90;;;9.40;;
297;SDS011;133;49.626;9.680;2022-07-29T15:45:06;13.10;;;10.60;;
297;SDS011;133;49.626;9.680;2022-07-29T15:47:34;12.43;;;9.50;;
297;SDS011;133;49.626;9.680;2022-07-29T15:50:00;11.93;;;9.90;;
297;SDS011;133;49.626;9.680;2022-07-29T15:52:26;9.50;;;9.07;;
297;SDS011;133;49.626;9.680;2022-07-29T15:54:52;9.10;;;8.60;;
297;SDS011;133;49.626;9.680;2022-07-29T15:57:19;9.37;;;8.87;;
297;SDS011;133;49.626;9.680;2022-07-29T15:59:44;10.00;;;9.50;;
297;SDS011;133;49.626;9.680;2022-07-29T16:02:10;9.27;;;8.77;;
297;SDS011;133;49.626;9.680;2022-07-29T16:04:36;8.80;;;8.30;;
297;SDS011;133;49.626;9.680;2022-07-29T16:07:01;7.60;;;7.20;;
297;SDS011;133;49.626;9.680;2022-07-29T16:09:27;8.77;;;8.27;;
297;SDS011;133;49.626;9.680;2022-07-29T16:11:53;8.57;;;8.07;;
297;SDS011;133;49.626;9.680;2022-07-29T16:14:20;13.60;;;10.20;;
297;SDS011;133;49.626;9.680;2022-07-29T16:16:46;12.27;;;10.90;;
297;SDS011;133;49.626;9.680;2022-07-29T16:19:12;13.13;;;9.63;;
297;SDS011;133;49.626;9.680;2022-07-29T16:21:38;9.70;;;9.20;;
297;SDS011;133;49.626;9.680;2022-07-29T16:24:05;7.10;;;6.70;;
297;SDS011;133;49.626;9.680;2022-07-29T16:26:31;7.10;;;6.70;;
297;SDS011;133;49.626;9.680;2022-07-29T16:28:58;7.53;;;7.13;;
297;SDS011;133;49.626;9.680;2022-07-29T16:31:23;8.37;;;7.93;;
297;SDS011;133;49.626;9.680;2022-07-29T16:33:49;8.80;;;6.93;;